Time;durP1;ratioP1;P1;durP2;ratioP2;P2;SDS_P1;SDS_P2;PMS_P1;PMS_P2;Temp;Humidity;BMP_temperature;BMP_pressure;BME280_temperature;BME280_humidity;BME280_pressure;Samples;Min_cycle;Max_cycle;Signal;HPM_P1;HPM_P2
2022/07/03 00:01:59;;;;;;;12.80;4.70;;;;;;;18.18;50.50;99797.22;25067;1316;3026062;-64
2022/07/03 00:04:28;;;;;;;11.50;4.80;;;;;;;18.18;50.60;99801.48;25045;1313;3026107;-61
2022/07/03 00:06:58;;;;;;;9.20;3.80;;;;;;;18.22;50.41;99798.48;25088;1313;3026340;-62
2022/07/03 00:09:27;;;;;;;9.50;3.40;;;;;;;18.24;50.34;99798.44;25070;1313;3054790;-61
2022/07/03 00:11:56;;;;;;;11.40;3.30;;;;;;;18.27;50.16;99797.26;25059;1313;3026693;-60
2022/07/03 00:14:26;;;;;;;7.70;3.30;;;;;;;18.24;50.81;99793.63;25073;1313;3026813;-62
2022/07/03 00:16:55;;;;;;;7.50;3.40;;;;;;;18.18;50.70;99794.17;25077;1313;3054953;-60
2022/07/03 00:19:24;;;;;;;7.60;3.40;;;;;;;18.15;50.80;99791.25;25110;1313;3026695;-61
2022/07/03 00:21:56;;;;;;;8.50;3.60;;;;;;;18.14;50.71;99789.39;25047;1313;3054388;-61
2022/07/03 00:24:28;;;;;;;13.00;3.60;;;;;;;18.12;50.84;99791.52;25057;1313;3027091;-60
2022/07/03 00:26:58;;;;;;;7.40;3.20;;;;;;;18.13;50.76;99790.23;25072;1312;3027475;-61
2022/07/03 00:29:31;;;;;;;9.10;3.40;;;;;;;18.09;50.78;99791.41;25058;1313;3027658;-60
2022/07/03 00:32:00;;;;;;;8.30;3.30;;;;;;;18.07;50.74;99792.17;25111;1313;3026663;-60
2022/07/03 00:34:29;;;;;;;6.90;3.50;;;;;;;18.06;50.70;99790.08;25123;1313;3026863;-60
2022/07/03 00:36:58;;;;;;;8.10;3.70;;;;;;;18.04;50.34;99791.29;25035;1316;3051267;-59
2022/07/03 00:39:27;;;;;;;7.90;3.60;;;;;;;18.00;50.53;99787.42;25008;1320;3026990;-60
2022/07/03 00:42:01;;;;;;;11.70;5.30;;;;;;;17.92;50.47;99789.69;25040;1313;3058768;-61
2022/07/03 00:44:30;;;;;;;12.60;7.00;;;;;;;17.88;50.80;99789.66;25095;1313;3051540;-61
2022/07/03 00:46:59;;;;;;;19.20;8.70;;;;;;;17.76;51.13;99784.24;25130;1313;3026610;-61
2022/07/03 00:49:28;;;;;;;17.10;6.50;;;;;;;17.75;51.45;99782.64;24974;1315;3026605;-58
2022/07/03 00:51:58;;;;;;;10.60;5.80;;;;;;;17.72;51.39;99779.46;24987;1315;3050562;-59
2022/07/03 00:54:26;;;;;;;11.60;5.20;;;;;;;17.66;51.83;99776.63;25030;1316;3026172;-60
2022/07/03 00:56:56;;;;;;;8.50;4.90;;;;;;;17.64;51.75;99775.05;25054;1316;3057794;-62
2022/07/03 00:59:26;;;;;;;16.90;7.60;;;;;;;17.60;51.92;99768.97;25043;1313;3026667;-61
2022/07/03 01:02:04;;;;;;;19.80;8.20;;;;;;;17.57;52.24;99769.47;25120;1313;3026081;-60
2022/07/03 01:04:44;;;;;;;12.80;6.50;;;;;;;17.51;52.27;99767.42;25079;1313;3056712;-60
2022/07/03 01:07:30;;;;;;;23.90;8.20;;;;;;;17.48;52.58;99770.77;25047;1313;3052219;-62
2022/07/03 01:10:07;;;;;;;20.90;7.20;;;;;;;17.47;52.28;99772.04;25085;1313;3055434;-60
2022/07/03 01:13:06;;;;;;;19.80;6.30;;;;;;;17.41;52.71;99774.67;25052;1316;3053996;-61
2022/07/03 01:16:03;;;;;;;8.50;3.50;;;;;;;17.34;52.94;99772.12;25076;1313;3070302;-60
2022/07/03 01:18:54;;;;;;;10.20;4.00;;;;;;;17.30;53.13;99771.04;25064;1313;3052202;-59
2022/07/03 01:21:44;;;;;;;11.90;4.30;;;;;;;17.29;53.23;99776.88;25085;1313;3054726;-61
2022/07/03 01:24:18;;;;;;;11.10;4.70;;;;;;;17.35;53.07;99775.73;25079;1313;3055370;-61
2022/07/03 01:26:47;;;;;;;11.30;4.70;;;;;;;17.34;53.14;99774.00;25053;1316;3056231;-62
2022/07/03 01:29:29;;;;;;;9.50;3.70;;;;;;;17.30;53.07;99775.59;25052;1313;3026215;-60
2022/07/03 01:31:58;;;;;;;8.60;3.90;;;;;;;17.25;53.39;99774.75;25067;1316;3054321;-59
2022/07/03 01:34:30;;;;;;;7.70;3.20;;;;;;;17.24;53.70;99771.66;25129;1313;3026579;-61
2022/07/03 01:36:59;;;;;;;15.90;5.50;;;;;;;17.26;53.59;99774.84;25082;1315;3051697;-59
2022/07/03 01:39:28;;;;;;;11.00;4.90;;;;;;;17.32;53.41;99774.17;25129;1315;3026707;-60
2022/07/03 01:41:57;;;;;;;11.90;6.10;;;;;;;17.28;53.49;99778.73;25105;1313;3056964;-60
2022/07/03 01:44:28;;;;;;;16.30;7.60;;;;;;;17.26;53.42;99776.13;25067;1316;3026517;-60
2022/07/03 01:47:00;;;;;;;16.40;6.00;;;;;;;17.24;53.65;99776.58;25108;1313;3054916;-59
2022/07/03 01:49:29;;;;;;;21.70;8.00;;;;;;;17.22;53.90;99781.91;25075;1311;3026553;-60
2022/07/03 01:51:58;;;;;;;20.30;8.50;;;;;;;17.24;53.83;99784.39;25138;1313;3055429;-62
2022/07/03 01:54:27;;;;;;;16.50;5.70;;;;;;;17.23;53.74;99779.15;25033;1316;3026343;-59
2022/07/03 01:56:56;;;;;;;17.00;5.20;;;;;;;17.20;53.94;99783.52;25075;1316;3026764;-59
2022/07/03 01:59:25;;;;;;;10.40;4.80;;;;;;;17.15;54.20;99782.13;24985;1316;3054200;-60
2022/07/03 02:02:00;;;;;;;10.60;3.80;;;;;;;17.16;54.12;99779.77;25127;1313;3026758;-60
2022/07/03 02:04:34;;;;;;;10.60;3.80;;;;;;;17.16;54.05;99777.64;25071;1313;3052183;-61
2022/07/03 02:07:39;;;;;;;10.10;3.50;;;;;;;17.17;54.17;99778.78;25078;1313;3054053;-58
2022/07/03 02:10:10;;;;;;;5.00;3.10;;;;;;;17.15;53.98;99777.60;25063;1316;3054499;-60
2022/07/03 02:12:50;;;;;;;7.70;3.70;;;;;;;17.17;54.21;99772.79;25083;1313;3026571;-61
2022/07/03 02:15:30;;;;;;;9.90;3.60;;;;;;;17.19;53.97;99772.10;25026;1319;3051820;-60
2022/07/03 02:18:26;;;;;;;9.00;3.20;;;;;;;17.20;54.01;99776.10;25097;1315;3056036;-61
2022/07/03 02:21:14;;;;;;;8.00;3.00;;;;;;;17.22;53.91;99780.66;25085;1316;3054602;-61
2022/07/03 02:24:18;;;;;;;8.50;3.20;;;;;;;17.22;53.99;99777.69;25068;1316;3071048;-60
2022/07/03 02:27:00;;;;;;;8.00;2.80;;;;;;;17.20;54.14;99777.31;25065;1313;3053301;-63
2022/07/03 02:29:34;;;;;;;8.40;3.00;;;;;;;17.21;53.76;99773.48;25054;1313;3054565;-59
2022/07/03 02:32:04;;;;;;;9.70;3.50;;;;;;;17.20;54.15;99775.77;25075;1313;3055822;-61
2022/07/03 02:34:34;;;;;;;6.50;3.30;;;;;;;17.18;54.40;99772.33;25024;1313;3027770;-59
2022/07/03 02:37:12;;;;;;;7.50;4.10;;;;;;;17.14;54.30;99767.70;25058;1313;3026573;-61
2022/07/03 02:39:51;;;;;;;6.70;3.40;;;;;;;17.07;54.72;99772.35;25067;1314;3052799;-61
2022/07/03 02:42:57;;;;;;;8.80;3.20;;;;;;;17.04;54.98;99772.27;25120;1312;3050986;-59
2022/07/03 02:45:46;;;;;;;9.70;3.90;;;;;;;17.03;54.96;99764.88;25062;1313;3071729;-60
2022/07/03 02:48:30;;;;;;;8.00;3.10;;;;;;;17.06;54.90;99766.77;25057;1313;3050131;-60
2022/07/03 02:51:02;;;;;;;;;;;;;;;17.05;54.93;99769.87;25065;1316;3054695;-59
2022/07/03 02:53:46;;;;;;;7.70;3.40;;;;;;;17.00;55.30;99771.53;25085;1316;3028893;-59
2022/07/03 02:56:17;;;;;;;6.10;3.10;;;;;;;17.02;55.30;99771.73;25073;1313;3056675;-59
2022/07/03 02:58:55;;;;;;;6.90;3.60;;;;;;;17.02;55.13;99768.39;25088;1316;3026745;-60
2022/07/03 03:01:44;;;;;;;9.10;3.30;;;;;;;17.04;55.21;99769.41;25124;1313;3052715;-58
2022/07/03 03:04:26;;;;;;;7.70;3.70;;;;;;;17.08;54.77;99771.15;25073;1313;3053956;-60
2022/07/03 03:07:00;;;;;;;10.90;4.10;;;;;;;17.10;54.87;99773.34;25055;1313;3071465;-57
2022/07/03 03:09:39;;;;;;;16.40;4.80;;;;;;;17.11;55.03;99772.39;25091;1313;3052165;-62
2022/07/03 03:12:10;;;;;;;13.80;4.30;;;;;;;17.14;54.91;99771.67;25110;1313;3052493;-60
2022/07/03 03:14:41;;;;;;;10.10;3.50;;;;;;;17.17;55.01;99778.48;25097;1313;3026487;-60
2022/07/03 03:17:18;;;;;;;9.40;3.70;;;;;;;17.16;55.07;99775.14;25123;1313;3026657;-59
2022/07/03 03:19:55;;;;;;;10.80;4.20;;;;;;;17.18;55.31;99773.80;25048;1313;3051895;-59
2022/07/03 03:22:50;;;;;;;12.30;5.10;;;;;;;17.17;55.25;99777.41;25067;1313;3052144;-59
2022/07/03 03:25:19;;;;;;;15.20;6.20;;;;;;;17.17;55.04;99776.50;25133;1313;3054454;-59
2022/07/03 03:27:48;;;;;;;9.90;4.10;;;;;;;17.21;54.99;99774.06;25058;1313;3026547;-60
2022/07/03 03:30:18;;;;;;;12.30;4.60;;;;;;;17.20;55.03;99774.82;25091;1312;3052622;-61
2022/07/03 03:32:46;;;;;;;9.90;4.90;;;;;;;17.20;55.24;99779.41;25056;1313;3026467;-60
2022/07/03 03:35:16;;;;;;;13.10;5.60;;;;;;;17.18;55.41;99780.86;25079;1316;3049657;-59
2022/07/03 03:37:45;;;;;;;12.90;5.40;;;;;;;17.19;55.42;99785.17;25015;1318;3026654;-58
2022/07/03 03:40:15;;;;;;;15.70;6.50;;;;;;;17.21;55.68;99780.05;25066;1313;3056404;-61
2022/07/03 03:42:45;;;;;;;20.50;6.70;;;;;;;17.24;55.46;99773.64;25043;1313;3026751;-58
2022/07/03 03:45:14;;;;;;;21.50;8.50;;;;;;;17.25;55.76;99784.67;24761;1316;3565954;-57
2022/07/03 03:47:43;;;;;;;18.90;7.00;;;;;;;17.27;55.66;99784.29;25081;1313;3058217;-58
2022/07/03 03:50:12;;;;;;;22.80;9.00;;;;;;;17.32;55.92;99786.23;25078;1315;3026723;-60
2022/07/03 03:52:41;;;;;;;16.50;8.10;;;;;;;17.36;55.70;99780.77;25089;1314;3054199;-61
2022/07/03 03:55:10;;;;;;;22.50;9.00;;;;;;;17.41;55.89;99778.17;25067;1315;3028302;-60
2022/07/03 03:57:40;;;;;;;17.50;8.00;;;;;;;17.47;55.38;99778.76;25072;1315;3026581;-60
2022/07/03 04:00:09;;;;;;;19.10;7.00;;;;;;;17.56;55.34;99772.91;25040;1316;3054498;-59
2022/07/03 04:02:44;;;;;;;16.50;6.70;;;;;;;17.68;55.42;99774.40;25086;1315;3057395;-60
2022/07/03 04:05:13;;;;;;;24.00;7.60;;;;;;;17.77;55.37;99770.88;25045;1313;3026791;-62
2022/07/03 04:07:42;;;;;;;19.40;8.20;;;;;;;17.78;55.13;99769.58;25116;1316;3026792;-59
2022/07/03 04:10:11;;;;;;;18.90;6.30;;;;;;;17.82;55.10;99767.29;25018;1313;3056158;-59
2022/07/03 04:12:40;;;;;;;17.20;7.50;;;;;;;17.88;54.58;99766.41;25095;1313;3028412;-61
2022/07/03 04:15:09;;;;;;;16.70;7.40;;;;;;;17.93;54.91;99765.66;25056;1315;3054217;-60
2022/07/03 04:17:38;;;;;;;23.10;6.50;;;;;;;17.96;54.72;99768.21;25052;1316;3026518;-59
2022/07/03 04:20:08;;;;;;;16.40;6.70;;;;;;;18.02;54.63;99763.99;25132;1316;3052482;-59
2022/07/03 04:22:38;;;;;;;16.70;6.50;;;;;;;18.11;54.40;99767.64;25157;1313;3026705;-58
2022/07/03 04:25:07;;;;;;;18.10;5.30;;;;;;;18.19;53.85;99766.45;25075;1313;3027855;-59
2022/07/03 04:27:36;;;;;;;13.00;5.50;;;;;;;18.25;54.01;99763.09;25058;1313;3052736;-63
2022/07/03 04:30:10;;;;;;;15.00;5.40;;;;;;;18.32;53.63;99761.27;25125;1313;3026548;-59
2022/07/03 04:32:39;;;;;;;14.80;4.50;;;;;;;18.44;53.62;99763.70;25134;1313;3049149;-59
2022/07/03 04:35:08;;;;;;;8.30;3.70;;;;;;;18.48;53.14;99765.16;25053;1313;3026429;-60
2022/07/03 04:37:38;;;;;;;16.40;3.60;;;;;;;18.54;52.54;99766.91;25104;1313;3068828;-60
2022/07/03 04:40:07;;;;;;;5.70;2.70;;;;;;;18.64;52.32;99764.10;25085;1313;3026509;-60
2022/07/03 04:42:36;;;;;;;5.30;2.50;;;;;;;18.66;51.98;99765.50;25085;1313;3051818;-58
2022/07/03 04:45:07;;;;;;;8.90;3.30;;;;;;;18.70;52.01;99767.64;25076;1313;3029528;-60
2022/07/03 04:47:36;;;;;;;7.50;2.80;;;;;;;18.81;51.46;99765.55;25090;1313;3053150;-61
2022/07/03 04:50:05;;;;;;;9.60;2.60;;;;;;;18.90;51.39;99769.92;25058;1313;3026830;-61
2022/07/03 04:52:35;;;;;;;13.00;2.70;;;;;;;19.02;51.07;99763.74;25096;1313;3049092;-60
2022/07/03 04:55:04;;;;;;;11.70;2.70;;;;;;;19.12;50.53;99763.00;25132;1313;3026815;-60
2022/07/03 04:57:34;;;;;;;6.20;2.90;;;;;;;19.16;50.47;99764.04;25125;1313;3058277;-59
2022/07/03 05:00:05;;;;;;;9.50;2.80;;;;;;;19.14;50.05;99758.52;25100;1313;3026276;-61
2022/07/03 05:02:34;;;;;;;4.40;2.10;;;;;;;19.18;50.09;99753.39;25098;1313;3026327;-59
2022/07/03 05:05:03;;;;;;;3.90;2.20;;;;;;;19.32;49.95;99761.30;25057;1313;3026460;-60
2022/07/03 05:10:16;;;;;;;11.40;2.50;;;;;;;19.53;49.31;99760.93;31492;1319;3026400;-61
2022/07/03 05:12:53;;;;;;;7.20;2.80;;;;;;;19.75;48.64;99761.38;24932;1319;3052740;-61
2022/07/03 05:15:23;;;;;;;7.70;2.80;;;;;;;20.02;47.86;99759.42;24964;1319;3026783;-59
2022/07/03 05:17:52;;;;;;;7.50;2.40;;;;;;;19.98;47.56;99761.04;24957;1319;3027041;-59
2022/07/03 05:20:27;;;;;;;10.10;2.70;;;;;;;20.06;47.91;99761.34;24923;1319;3026776;-60
2022/07/03 05:22:58;;;;;;;10.90;2.60;;;;;;;20.06;47.52;99766.48;24677;1319;3052008;-60
2022/07/03 05:25:29;;;;;;;7.70;2.30;;;;;;;20.13;47.59;99764.62;24978;1316;3027155;-60
2022/07/03 05:28:00;;;;;;;6.40;2.70;;;;;;;20.12;47.23;99770.52;24959;1316;3026960;-60
2022/07/03 05:30:28;;;;;;;4.20;2.40;;;;;;;20.15;47.03;99764.23;24992;1319;3029874;-63
2022/07/03 05:32:57;;;;;;;13.30;2.30;;;;;;;20.28;47.07;99766.65;25069;1316;3029364;-59
2022/07/03 05:35:26;;;;;;;6.30;2.40;;;;;;;20.31;46.69;99766.41;25027;1316;3068609;-63
2022/07/03 05:37:55;;;;;;;4.50;2.40;;;;;;;20.35;46.90;99759.63;25048;1316;3026419;-59
2022/07/03 05:40:24;;;;;;;6.70;2.20;;;;;;;20.39;46.98;99759.03;25050;1316;3049940;-60
2022/07/03 05:42:53;;;;;;;5.40;2.00;;;;;;;20.50;46.88;99762.63;25050;1316;3028604;-59
2022/07/03 05:45:22;;;;;;;7.60;2.60;;;;;;;20.50;46.22;99764.26;25002;1316;3055218;-62
2022/07/03 05:47:51;;;;;;;3.30;2.30;;;;;;;20.43;46.27;99756.58;25032;1318;3026544;-61
2022/07/03 05:50:20;;;;;;;4.70;2.60;;;;;;;20.45;46.18;99759.76;25040;1316;3052225;-59
2022/07/03 05:52:49;;;;;;;8.30;2.60;;;;;;;20.50;46.09;99755.20;25044;1316;3028321;-60
2022/07/03 05:55:18;;;;;;;9.90;2.80;;;;;;;20.63;45.94;99757.98;25057;1316;3055290;-60
2022/07/03 05:57:47;;;;;;;8.60;2.50;;;;;;;20.79;45.93;99758.74;25007;1316;3027749;-61
2022/07/03 06:00:16;;;;;;;5.20;2.40;;;;;;;20.89;45.56;99754.61;25081;1316;3051645;-60
2022/07/03 06:02:45;;;;;;;5.60;2.50;;;;;;;20.88;44.73;99753.95;25038;1316;3026539;-60
2022/07/03 06:05:14;;;;;;;6.40;2.80;;;;;;;21.00;45.56;99751.49;24995;1316;3052015;-58
2022/07/03 06:07:43;;;;;;;11.80;2.50;;;;;;;21.11;45.58;99755.56;25087;1315;3026775;-61
2022/07/03 06:10:12;;;;;;;9.50;2.90;;;;;;;21.15;44.89;99756.66;25010;1316;3050734;-61
2022/07/03 06:13:08;;;;;;;;;;;;;;;21.20;45.01;99752.65;24991;1316;3052370;-61
2022/07/03 06:15:37;;;;;;;3.70;2.00;;;;;;;21.27;45.08;99754.88;25014;1315;3028294;-61
2022/07/03 06:18:07;;;;;;;8.00;2.80;;;;;;;21.26;45.03;99757.28;25015;1315;3026635;-61
2022/07/03 06:20:36;;;;;;;13.10;2.60;;;;;;;21.18;45.13;99759.17;25043;1315;3027248;-59
2022/07/03 06:23:08;;;;;;;7.70;2.60;;;;;;;21.08;45.29;99757.27;25098;1316;3051996;-60
2022/07/03 06:25:37;;;;;;;8.90;2.30;;;;;;;21.11;45.35;99754.66;25117;1315;3029091;-59
2022/07/03 06:28:06;;;;;;;11.00;3.00;;;;;;;21.27;45.26;99751.48;25105;1316;3051462;-62
2022/07/03 06:30:36;;;;;;;7.90;2.50;;;;;;;21.41;44.94;99754.89;25088;1316;3026831;-61
2022/07/03 06:33:05;;;;;;;8.40;2.80;;;;;;;21.42;45.87;99752.66;25018;1316;3026277;-60
2022/07/03 06:35:34;;;;;;;6.10;2.90;;;;;;;21.49;45.74;99748.73;25091;1316;3051223;-62
2022/07/03 06:38:03;;;;;;;8.60;3.00;;;;;;;21.54;44.93;99749.53;25061;1315;3028579;-63
2022/07/03 06:40:33;;;;;;;6.30;3.10;;;;;;;21.56;44.89;99742.51;25053;1315;3050873;-62
2022/07/03 06:43:02;;;;;;;10.30;2.60;;;;;;;21.72;44.29;99738.95;25068;1315;3026007;-65
2022/07/03 06:45:31;;;;;;;6.60;2.50;;;;;;;21.88;43.97;99734.77;25090;1316;3070461;-63
2022/07/03 06:48:00;;;;;;;7.80;2.30;;;;;;;21.88;43.30;99739.05;25035;1315;3026532;-63
2022/07/03 06:50:29;;;;;;;7.40;2.20;;;;;;;21.86;43.47;99736.94;25122;1314;3026496;-63
2022/07/03 06:52:58;;;;;;;6.40;2.40;;;;;;;21.90;43.48;99730.61;25024;1316;3070262;-63
2022/07/03 06:55:27;;;;;;;6.70;2.10;;;;;;;21.91;43.55;99732.52;25112;1316;3026370;-64
2022/07/03 06:57:56;;;;;;;6.20;2.30;;;;;;;22.01;42.75;99734.86;25027;1315;3049662;-62
2022/07/03 07:00:25;;;;;;;8.60;2.50;;;;;;;21.98;42.22;99729.63;25113;1316;3026186;-63
2022/07/03 07:02:54;;;;;;;8.00;2.70;;;;;;;22.10;41.97;99726.98;25067;1315;3052302;-63
2022/07/03 07:05:25;;;;;;;3.90;2.10;;;;;;;22.18;41.43;99729.01;25055;1316;3027468;-63
2022/07/03 07:07:55;;;;;;;10.00;2.30;;;;;;;22.19;40.24;99726.36;25039;1315;3026409;-62
2022/07/03 07:10:24;;;;;;;6.20;2.00;;;;;;;22.32;40.80;99721.64;25102;1314;3026209;-62
2022/07/03 07:12:53;;;;;;;2.80;2.00;;;;;;;22.44;40.14;99730.02;25133;1315;3049768;-62
2022/07/03 07:15:22;;;;;;;5.30;2.10;;;;;;;22.45;39.53;99726.88;25026;1316;3026396;-62
2022/07/03 07:17:51;;;;;;;5.10;1.90;;;;;;;22.40;39.03;99737.37;25112;1316;3051587;-61
2022/07/03 07:20:20;;;;;;;12.00;2.10;;;;;;;22.44;39.14;99730.88;25057;1316;3026614;-62
2022/07/03 07:22:50;;;;;;;6.00;1.70;;;;;;;22.44;39.11;99733.53;25013;1316;3049496;-62
2022/07/03 07:25:20;;;;;;;4.10;2.00;;;;;;;22.52;38.56;99731.00;25115;1316;3026489;-60
2022/07/03 07:27:49;;;;;;;8.40;2.00;;;;;;;22.71;38.93;99721.02;25042;1316;3058019;-61
2022/07/03 07:30:19;;;;;;;5.00;2.20;;;;;;;22.77;38.77;99730.40;25035;1316;3026892;-60
2022/07/03 07:32:48;;;;;;;3.60;1.90;;;;;;;22.80;38.62;99726.95;25088;1316;3026843;-62
2022/07/03 07:35:18;;;;;;;4.80;2.30;;;;;;;22.79;38.50;99720.56;25036;1316;3058067;-61
2022/07/03 07:37:48;;;;;;;6.20;2.10;;;;;;;22.73;37.96;99718.22;24992;1316;3027160;-62
2022/07/03 07:40:17;;;;;;;9.50;2.10;;;;;;;22.80;38.53;99714.06;25085;1316;3026968;-60
2022/07/03 07:42:46;;;;;;;4.00;1.80;;;;;;;22.93;38.14;99713.14;25089;1316;3026430;-61
2022/07/03 07:45:15;;;;;;;10.60;2.20;;;;;;;23.19;37.36;99703.42;25027;1316;3052821;-64
2022/07/03 07:47:44;;;;;;;7.40;2.50;;;;;;;23.32;37.23;99708.63;25073;1316;3028849;-62
2022/07/03 07:50:14;;;;;;;7.40;2.30;;;;;;;23.42;37.12;99708.77;25128;1316;3026118;-61
2022/07/03 07:52:43;;;;;;;8.00;2.30;;;;;;;23.36;36.84;99710.14;25065;1316;3051473;-60
2022/07/03 07:55:12;;;;;;;10.40;2.30;;;;;;;23.30;37.09;99702.90;25099;1315;3025955;-60
2022/07/03 07:57:42;;;;;;;6.90;2.30;;;;;;;23.41;37.34;99702.80;25122;1316;3057436;-62
2022/07/03 08:00:13;;;;;;;4.00;2.20;;;;;;;23.57;36.79;99705.80;25068;1316;3026358;-61
2022/07/03 08:05:36;;;;;;;7.50;2.10;;;;;;;23.77;36.04;99702.89;25082;1316;3053326;-62
2022/07/03 08:08:13;;;;;;;6.40;2.40;;;;;;;23.71;36.20;99706.11;25038;1316;3027241;-60
2022/07/03 08:10:47;;;;;;;5.60;2.10;;;;;;;23.67;36.43;99706.12;25054;1316;3048697;-60
2022/07/03 08:13:17;;;;;;;4.70;2.30;;;;;;;23.63;36.58;99706.42;25110;1316;3053247;-61
2022/07/03 08:15:49;;;;;;;3.10;2.20;;;;;;;23.67;36.35;99702.40;25098;1316;3026480;-63
2022/07/03 08:18:18;;;;;;;8.00;2.00;;;;;;;23.63;36.53;99699.64;25086;1316;3026865;-60
2022/07/03 08:20:47;;;;;;;4.10;1.70;;;;;;;23.66;36.23;99702.54;25108;1316;3028455;-60
2022/07/03 08:23:16;;;;;;;3.80;2.00;;;;;;;23.80;35.69;99696.31;25070;1316;3052726;-61
2022/07/03 08:25:46;;;;;;;3.30;2.10;;;;;;;23.86;35.49;99686.82;25035;1315;3026168;-59
2022/07/03 08:28:15;;;;;;;6.80;1.70;;;;;;;23.90;35.38;99683.96;25103;1316;3026413;-61
2022/07/03 08:30:47;;;;;;;5.20;2.00;;;;;;;24.02;35.46;99684.18;25068;1315;3053148;-62
2022/07/03 08:33:16;;;;;;;5.90;2.20;;;;;;;24.01;35.53;99688.41;25136;1316;3026230;-63
2022/07/03 08:35:45;;;;;;;4.90;2.20;;;;;;;23.98;35.38;99688.07;25062;1316;3051278;-62
2022/07/03 08:38:13;;;;;;;7.40;2.30;;;;;;;24.10;35.34;99680.25;25159;1316;3026426;-63
2022/07/03 08:40:43;;;;;;;5.30;2.30;;;;;;;24.28;35.16;99680.16;25071;1316;3047797;-61
2022/07/03 08:43:13;;;;;;;8.60;1.90;;;;;;;24.34;34.63;99674.61;25062;1316;3027247;-62
2022/07/03 08:45:42;;;;;;;6.40;1.70;;;;;;;24.46;34.49;99677.42;25094;1316;3026675;-63
2022/07/03 08:48:11;;;;;;;7.60;2.40;;;;;;;24.60;34.85;99680.54;25084;1316;3048146;-63
2022/07/03 08:50:40;;;;;;;7.60;2.70;;;;;;;24.70;34.75;99685.14;25068;1316;3026834;-62
2022/07/03 08:53:10;;;;;;;3.70;2.30;;;;;;;24.58;33.77;99684.63;25082;1316;3026124;-61
2022/07/03 08:55:39;;;;;;;8.20;2.00;;;;;;;24.55;33.53;99680.95;25079;1316;3049056;-61
2022/07/03 08:58:10;;;;;;;2.70;1.60;;;;;;;24.74;33.53;99680.77;25089;1316;3026304;-62
2022/07/03 09:00:39;;;;;;;6.20;2.00;;;;;;;24.69;33.73;99691.14;25025;1314;3070529;-63
2022/07/03 09:03:11;;;;;;;15.70;2.10;;;;;;;24.75;33.90;99679.38;25070;1316;3026888;-61
2022/07/03 09:05:40;;;;;;;2.80;2.00;;;;;;;24.98;33.59;99678.84;25139;1316;3051043;-62
2022/07/03 09:08:09;;;;;;;5.10;2.00;;;;;;;24.88;33.56;99685.92;25045;1315;3029011;-61
2022/07/03 09:10:38;;;;;;;5.40;1.90;;;;;;;24.85;33.35;99685.02;25093;1316;3051982;-62
2022/07/03 09:13:08;;;;;;;4.30;2.00;;;;;;;24.79;32.60;99688.63;25084;1316;3026690;-62
2022/07/03 09:15:39;;;;;;;4.90;2.10;;;;;;;24.68;32.28;99687.19;25060;1319;3026600;-62
2022/07/03 09:18:08;;;;;;;5.30;2.20;;;;;;;24.62;33.13;99682.29;25077;1316;3026481;-61
2022/07/03 09:20:40;;;;;;;5.80;1.80;;;;;;;24.78;33.40;99691.95;25093;1316;3050467;-61
2022/07/03 09:23:09;;;;;;;7.20;2.20;;;;;;;24.83;33.14;99694.02;25064;1315;3026644;-63
2022/07/03 09:25:51;;;;;;;8.70;2.10;;;;;;;24.93;33.22;99693.23;25103;1316;3026221;-63
2022/07/03 09:28:21;;;;;;;6.00;2.20;;;;;;;24.97;33.67;99685.04;25086;1316;3054420;-61
2022/07/03 09:30:58;;;;;;;4.60;1.50;;;;;;;24.99;33.11;99695.40;25077;1316;3026891;-63
2022/07/03 09:33:27;;;;;;;4.70;1.90;;;;;;;24.84;32.04;99690.39;25056;1315;3049964;-65
2022/07/03 09:35:57;;;;;;;4.50;1.80;;;;;;;25.00;31.70;99681.45;25072;1316;3026392;-64
2022/07/03 09:38:26;;;;;;;5.30;1.70;;;;;;;25.34;31.65;99679.83;25106;1316;3028142;-63
2022/07/03 09:40:57;;;;;;;5.10;1.90;;;;;;;25.51;31.42;99678.73;25088;1316;3026570;-61
2022/07/03 09:43:29;;;;;;;3.00;1.80;;;;;;;25.52;30.79;99682.50;25142;1316;3052198;-61
2022/07/03 09:46:02;;;;;;;7.20;1.80;;;;;;;25.33;31.23;99678.25;25052;1316;3026840;-63
2022/07/03 09:48:41;;;;;;;6.40;2.00;;;;;;;25.31;31.80;99671.59;25116;1315;3026773;-64
2022/07/03 09:51:19;;;;;;;4.90;1.70;;;;;;;25.50;31.37;99669.45;25100;1316;3049389;-62
2022/07/03 09:54:18;;;;;;;7.00;2.10;;;;;;;25.75;31.44;99657.31;25067;1316;3052743;-62
2022/07/03 09:56:47;;;;;;;4.60;1.80;;;;;;;26.09;30.93;99657.52;25057;1316;3054149;-65
2022/07/03 09:59:17;;;;;;;7.20;1.90;;;;;;;26.18;30.92;99655.00;25040;1316;3026815;-65
2022/07/03 10:01:46;;;;;;;4.80;2.50;;;;;;;26.01;30.75;99649.84;25116;1315;3026913;-62
2022/07/03 10:04:19;;;;;;;7.50;1.90;;;;;;;26.12;30.82;99653.36;25068;1316;3026445;-60
2022/07/03 10:06:53;;;;;;;5.40;2.20;;;;;;;26.19;30.58;99647.71;25068;1316;3067738;-62
2022/07/03 10:09:24;;;;;;;2.70;1.60;;;;;;;26.43;30.13;99648.49;25074;1316;3052200;-61
2022/07/03 10:11:58;;;;;;;6.30;1.70;;;;;;;26.44;29.65;99646.92;25041;1315;3052148;-64
2022/07/03 10:14:30;;;;;;;3.00;2.10;;;;;;;26.29;29.78;99645.21;25022;1315;3028362;-62
2022/07/03 10:17:01;;;;;;;12.30;2.00;;;;;;;26.23;29.40;99649.30;25079;1316;3026877;-62
2022/07/03 10:19:30;;;;;;;2.60;1.60;;;;;;;26.35;29.38;99642.29;25101;1316;3027657;-59
2022/07/03 10:22:03;;;;;;;2.30;1.60;;;;;;;26.31;29.85;99634.51;25085;1316;3026913;-63
2022/07/03 10:24:32;;;;;;;5.10;1.70;;;;;;;26.40;29.25;99639.73;25140;1316;3028598;-61
2022/07/03 10:27:01;;;;;;;8.00;2.00;;;;;;;26.27;29.37;99639.19;25036;1315;3026719;-60
2022/07/03 10:29:30;;;;;;;5.90;1.90;;;;;;;26.32;29.83;99630.30;25136;1315;3052286;-64
2022/07/03 10:31:59;;;;;;;10.80;2.10;;;;;;;26.72;29.68;99624.38;25079;1315;3027120;-64
2022/07/03 10:34:28;;;;;;;2.60;1.80;;;;;;;26.74;28.96;99628.67;25089;1315;3049678;-61
2022/07/03 10:36:59;;;;;;;6.00;1.80;;;;;;;26.75;28.68;99623.30;25132;1316;3026410;-63
2022/07/03 10:39:38;;;;;;;5.30;1.80;;;;;;;26.55;28.41;99624.11;25027;1316;3025984;-64
2022/07/03 10:45:07;;;;;;;4.30;1.90;;;;;;;26.85;28.53;99617.39;25095;1315;3051503;-63
2022/07/03 10:47:50;;;;;;;5.10;2.00;;;;;;;26.93;28.44;99615.63;25068;1316;3052582;-65
2022/07/03 10:50:21;;;;;;;6.50;1.90;;;;;;;27.14;28.57;99608.45;25137;1316;3053185;-63
2022/07/03 10:52:51;;;;;;;3.70;1.40;;;;;;;27.33;28.06;99607.86;25062;1315;3026360;-61
2022/07/03 10:55:20;;;;;;;4.50;1.60;;;;;;;27.25;27.70;99611.27;25074;1315;3026592;-63
2022/07/03 10:58:08;;;;;;;4.00;2.10;;;;;;;27.40;27.38;99598.30;25043;1315;3054222;-61
2022/07/03 11:00:54;;;;;;;7.10;1.80;;;;;;;27.55;27.61;99609.08;25103;1316;3062008;-60
2022/07/03 11:03:52;;;;;;;6.10;1.70;;;;;;;27.19;28.24;99612.19;25045;1316;3053354;-62
2022/07/03 11:06:40;;;;;;;5.90;1.90;;;;;;;27.06;28.56;99603.77;25083;1315;3055293;-60
2022/07/03 11:09:13;;;;;;;5.30;1.80;;;;;;;26.94;28.63;99604.89;25050;1315;3054271;-61
2022/07/03 11:11:56;;;;;;;5.80;1.70;;;;;;;27.01;28.41;99603.13;25058;1316;3026899;-62
2022/07/03 11:14:29;;;;;;;5.20;1.70;;;;;;;27.21;28.16;99599.16;25047;1316;3051411;-60
2022/07/03 11:17:20;;;;;;;11.00;1.90;;;;;;;27.10;27.93;99603.46;25098;1316;3026361;-60
2022/07/03 11:23:00;;;;;;;5.90;2.00;;;;;;;27.56;27.38;99591.08;25101;1316;3057293;-61
2022/07/03 11:25:56;;;;;;;21.20;11.70;;;;;;;27.60;27.54;99585.29;25010;1315;3049799;-60
2022/07/03 11:28:31;;;;;;;7.30;1.70;;;;;;;27.92;26.79;99588.80;25063;1315;3055854;-63
2022/07/03 11:31:15;;;;;;;5.70;1.90;;;;;;;28.13;26.34;99585.91;25098;1316;3054080;-59
2022/07/03 11:33:51;;;;;;;7.00;1.50;;;;;;;28.00;26.04;99594.21;25120;1316;3069408;-63
2022/07/03 11:36:28;;;;;;;2.60;1.80;;;;;;;27.72;26.02;99589.31;25062;1315;3049518;-62
2022/07/03 11:38:59;;;;;;;6.20;1.90;;;;;;;27.59;26.12;99581.16;25059;1315;3056675;-61
2022/07/03 11:41:30;;;;;;;7.30;2.10;;;;;;;27.90;26.57;99576.16;25147;1315;3027697;-63
2022/07/03 11:44:02;;;;;;;4.40;2.10;;;;;;;27.91;26.91;99579.60;25106;1315;3026920;-62
2022/07/03 11:46:34;;;;;;;7.40;1.70;;;;;;;27.87;27.16;99573.62;25044;1315;3026920;-60
2022/07/03 11:49:05;;;;;;;3.10;2.20;;;;;;;27.93;27.38;99568.58;25101;1314;3026944;-62
2022/07/03 11:51:35;;;;;;;3.50;1.60;;;;;;;28.01;27.26;99576.86;25106;1315;3026647;-60